Time;durP1;ratioP1;P1;durP2;ratioP2;P2;SDS_P1;SDS_P2;PMS_P1;PMS_P2;Temp;Humidity;BMP_temperature;BMP_pressure;BME280_temperature;BME280_humidity;BME280_pressure;Samples;Min_cycle;Max_cycle;Signal;HPM_P1;HPM_P2
2023/01/08 00:01:11;;;;;;;4.88;3.30;;;9.50;99.90;;;;;;5022096;28;20098;-62
2023/01/08 00:03:37;;;;;;;5.22;3.35;;;9.50;99.90;;;;;;5024545;28;20030;-63
2023/01/08 00:06:04;;;;;;;4.18;3.10;;;9.50;99.90;;;;;;5023425;28;20492;-63
2023/01/08 00:08:30;;;;;;;4.78;3.10;;;9.60;99.90;;;;;;5020308;28;20444;-62
2023/01/08 00:10:56;;;;;;;3.35;3.05;;;9.50;99.90;;;;;;5021939;28;20124;-64
2023/01/08 00:13:22;;;;;;;4.43;3.20;;;9.50;99.90;;;;;;5022096;28;20033;-63
2023/01/08 00:15:47;;;;;;;4.82;3.25;;;9.50;99.90;;;;;;5021621;28;20034;-62
2023/01/08 00:18:13;;;;;;;6.03;3.53;;;9.40;99.90;;;;;;5029673;28;20045;-62
2023/01/08 00:20:42;;;;;;;5.75;3.80;;;9.50;99.90;;;;;;5022230;28;20033;-61
2023/01/08 00:23:11;;;;;;;6.70;3.92;;;9.50;99.90;;;;;;5025426;28;20557;-62
2023/01/08 00:25:36;;;;;;;5.43;4.45;;;9.60;99.90;;;;;;5023349;28;20041;-62
2023/01/08 00:28:02;;;;;;;5.75;4.10;;;9.60;99.90;;;;;;5027135;28;20041;-62
2023/01/08 00:30:28;;;;;;;5.80;3.85;;;9.60;99.90;;;;;;5025698;28;20033;-62
2023/01/08 00:32:54;;;;;;;4.70;3.47;;;9.60;99.90;;;;;;5022534;28;20050;-62
2023/01/08 00:35:19;;;;;;;4.60;3.47;;;9.60;99.90;;;;;;5025511;28;20052;-61
2023/01/08 00:37:48;;;;;;;4.95;3.25;;;9.60;99.90;;;;;;5029895;28;20034;-61
2023/01/08 00:40:14;;;;;;;4.85;2.97;;;9.60;99.90;;;;;;5019429;28;20048;-62
2023/01/08 00:42:39;;;;;;;6.00;3.58;;;9.60;99.90;;;;;;5024566;28;20370;-63
2023/01/08 00:45:05;;;;;;;6.18;3.70;;;9.50;99.90;;;;;;5025129;28;20049;-62
2023/01/08 00:47:31;;;;;;;4.82;3.47;;;9.30;99.90;;;;;;5024328;28;20439;-63
2023/01/08 00:49:56;;;;;;;4.32;3.20;;;9.10;99.90;;;;;;5026069;28;20033;-63
2023/01/08 00:52:22;;;;;;;7.20;3.80;;;9.00;99.90;;;;;;5026767;28;20397;-62
2023/01/08 00:54:48;;;;;;;5.32;4.20;;;8.90;99.90;;;;;;5024264;28;20477;-62
2023/01/08 00:57:13;;;;;;;4.57;3.55;;;8.80;99.90;;;;;;5022046;28;20071;-63
2023/01/08 00:59:39;;;;;;;5.78;3.78;;;8.80;99.90;;;;;;5016882;28;20075;-63
2023/01/08 01:02:04;;;;;;;5.97;3.47;;;8.80;99.90;;;;;;5018030;28;20042;-62
2023/01/08 01:04:30;;;;;;;5.70;3.47;;;8.80;99.90;;;;;;5022544;28;20037;-62
2023/01/08 01:06:56;;;;;;;5.80;4.00;;;8.80;99.90;;;;;;5021132;28;20088;-62
2023/01/08 01:09:22;;;;;;;6.80;3.92;;;8.80;99.90;;;;;;5012183;28;20460;-62
2023/01/08 01:11:47;;;;;;;4.75;3.60;;;8.80;99.90;;;;;;5028103;28;20030;-62
2023/01/08 01:14:13;;;;;;;5.20;3.65;;;8.80;99.90;;;;;;5021940;28;20049;-62
2023/01/08 01:16:40;;;;;;;6.07;3.42;;;8.80;99.90;;;;;;5022205;28;20049;-62
2023/01/08 01:19:06;;;;;;;5.15;3.78;;;8.80;99.90;;;;;;5023065;28;21936;-62
2023/01/08 01:21:32;;;;;;;5.82;3.60;;;8.70;99.90;;;;;;5024871;28;20082;-62
2023/01/08 01:24:02;;;;;;;6.07;3.60;;;8.80;99.90;;;;;;5031881;28;20124;-62
2023/01/08 01:26:29;;;;;;;5.47;3.47;;;8.80;99.90;;;;;;5024174;28;20068;-63
2023/01/08 01:28:56;;;;;;;6.22;3.85;;;8.80;99.90;;;;;;5025826;28;20050;-62
2023/01/08 01:31:23;;;;;;;4.28;3.28;;;8.70;99.90;;;;;;5025717;28;20507;-62
2023/01/08 01:33:49;;;;;;;4.65;3.33;;;8.70;99.90;;;;;;5023790;28;20061;-62
2023/01/08 01:36:16;;;;;;;5.47;2.47;;;8.70;99.90;;;;;;5024316;28;20107;-62
2023/01/08 01:38:44;;;;;;;5.10;3.60;;;8.80;99.90;;;;;;5026054;28;20033;-63
2023/01/08 01:41:32;;;;;;;2.97;2.25;;;8.70;99.90;;;;;;5031569;28;20044;-62
2023/01/08 01:44:00;;;;;;;5.80;2.50;;;8.80;99.90;;;;;;5021842;28;20092;-62
2023/01/08 01:46:34;;;;;;;3.42;2.33;;;8.70;99.90;;;;;;5020415;28;21957;-62
2023/01/08 01:49:03;;;;;;;4.90;2.63;;;8.70;99.90;;;;;;5020269;28;20119;-62
2023/01/08 01:51:33;;;;;;;3.42;1.83;;;8.70;99.90;;;;;;5024381;28;20409;-63
2023/01/08 01:54:01;;;;;;;6.20;2.00;;;8.60;99.90;;;;;;5026786;28;20049;-63
2023/01/08 01:56:28;;;;;;;5.30;2.20;;;8.70;99.90;;;;;;5020740;28;20054;-62
2023/01/08 01:58:53;;;;;;;4.68;2.10;;;8.60;99.90;;;;;;5020972;28;20033;-62
2023/01/08 02:01:20;;;;;;;4.03;1.65;;;8.60;99.90;;;;;;5019449;28;20052;-63
2023/01/08 02:03:45;;;;;;;10.52;1.90;;;8.50;99.90;;;;;;5022147;28;20053;-62
2023/01/08 02:06:29;;;;;;;6.13;1.50;;;8.50;99.90;;;;;;5028158;28;20406;-64
2023/01/08 02:09:13;;;;;;;3.40;1.40;;;8.50;99.90;;;;;;5029417;28;20037;-62
2023/01/08 02:11:45;;;;;;;5.05;1.45;;;8.40;99.90;;;;;;5018478;28;20033;-62
2023/01/08 02:14:56;;;;;;;5.47;1.35;;;8.40;99.90;;;;;;5032621;28;20111;-62
2023/01/08 02:17:57;;;;;;;7.53;1.70;;;8.30;99.90;;;;;;5030924;28;20128;-62
2023/01/08 02:20:30;;;;;;;3.78;1.13;;;8.20;99.90;;;;;;5021060;28;20037;-62
2023/01/08 02:23:25;;;;;;;8.73;1.38;;;8.10;99.90;;;;;;5021712;28;20078;-63
2023/01/08 02:26:13;;;;;;;6.57;1.40;;;8.10;99.90;;;;;;5029696;28;20125;-62
2023/01/08 02:29:05;;;;;;;4.72;1.17;;;8.00;99.90;;;;;;5028150;28;20041;-62
2023/01/08 02:31:32;;;;;;;6.60;1.30;;;7.90;99.90;;;;;;5041597;28;20112;-62
2023/01/08 02:33:59;;;;;;;6.75;1.40;;;7.90;99.90;;;;;;5032961;28;20159;-62
2023/01/08 02:36:29;;;;;;;6.18;1.50;;;7.90;99.90;;;;;;5023907;28;20521;-62
2023/01/08 02:39:18;;;;;;;6.25;1.65;;;7.90;99.90;;;;;;5018008;28;20448;-62
2023/01/08 02:42:00;;;;;;;9.90;1.83;;;7.80;99.90;;;;;;5016097;28;20466;-63
2023/01/08 02:44:53;;;;;;;7.95;1.55;;;7.80;99.90;;;;;;5020077;28;20050;-62
2023/01/08 02:47:29;;;;;;;8.93;1.40;;;7.80;99.90;;;;;;5024013;28;20049;-62
2023/01/08 02:50:25;;;;;;;7.65;1.58;;;7.80;99.90;;;;;;5022993;28;20037;-62
2023/01/08 02:53:27;;;;;;;8.65;1.80;;;7.80;99.90;;;;;;5016005;28;20050;-62
2023/01/08 02:56:00;;;;;;;7.47;1.55;;;7.80;99.90;;;;;;5014843;28;20551;-62
2023/01/08 02:58:28;;;;;;;6.35;1.40;;;7.80;99.90;;;;;;5019819;28;21338;-62
2023/01/08 03:00:55;;;;;;;6.97;1.42;;;7.80;99.90;;;;;;5020303;28;20055;-62
2023/01/08 03:03:26;;;;;;;6.95;1.70;;;7.80;99.90;;;;;;5027058;28;20485;-62
2023/01/08 03:05:56;;;;;;;7.82;1.50;;;7.80;99.90;;;;;;5026018;28;20159;-63
2023/01/08 03:08:23;;;;;;;8.75;1.88;;;7.80;99.90;;;;;;5011833;28;20038;-62
2023/01/08 03:10:59;;;;;;;8.55;1.85;;;7.90;99.90;;;;;;5021634;28;20038;-62
2023/01/08 03:13:40;;;;;;;10.93;1.70;;;7.80;99.90;;;;;;5023094;28;20080;-62
2023/01/08 03:16:14;;;;;;;7.25;1.70;;;7.90;99.90;;;;;;5023267;28;20084;-62
2023/01/08 03:19:10;;;;;;;6.60;1.65;;;7.80;99.90;;;;;;5027741;28;20041;-62
2023/01/08 03:21:37;;;;;;;9.98;1.60;;;7.80;99.90;;;;;;5023497;28;20048;-62
2023/01/08 03:24:05;;;;;;;5.97;1.75;;;7.70;99.90;;;;;;5022270;28;20048;-62
2023/01/08 03:26:32;;;;;;;8.57;1.52;;;7.70;99.90;;;;;;5022796;28;20040;-62
2023/01/08 03:28:59;;;;;;;9.25;1.58;;;7.70;99.90;;;;;;5020782;28;20038;-62
2023/01/08 03:31:27;;;;;;;6.72;1.70;;;7.80;99.90;;;;;;5027664;28;20044;-62
2023/01/08 03:33:54;;;;;;;7.38;2.08;;;7.80;99.90;;;;;;5022656;28;20175;-62
2023/01/08 03:36:24;;;;;;;3.30;1.63;;;7.80;99.90;;;;;;5020713;28;20384;-62
2023/01/08 03:39:11;;;;;;;4.88;1.88;;;7.90;99.90;;;;;;5024325;28;20033;-62
2023/01/08 03:41:37;;;;;;;6.65;1.83;;;7.90;99.90;;;;;;5022008;28;20485;-62
2023/01/08 03:44:03;;;;;;;7.38;1.70;;;7.90;99.90;;;;;;5023956;28;20452;-62
2023/01/08 03:46:33;;;;;;;4.63;2.00;;;7.90;99.90;;;;;;5017455;28;20056;-62
2023/01/08 03:48:59;;;;;;;9.63;2.13;;;7.80;99.90;;;;;;5026069;28;20037;-62
2023/01/08 03:51:25;;;;;;;4.75;1.73;;;7.80;99.90;;;;;;5029011;28;20311;-62
2023/01/08 03:53:55;;;;;;;7.18;1.90;;;7.80;99.90;;;;;;5027911;28;20072;-62
2023/01/08 03:56:21;;;;;;;5.50;1.98;;;7.80;99.90;;;;;;5025370;28;20060;-62
2023/01/08 03:58:47;;;;;;;5.72;2.17;;;7.80;99.90;;;;;;5021933;28;20050;-62
2023/01/08 04:01:13;;;;;;;5.35;2.30;;;7.80;99.90;;;;;;5027049;28;20038;-62
2023/01/08 04:03:38;;;;;;;7.15;2.97;;;7.90;99.90;;;;;;5026894;28;20046;-62
2023/01/08 04:06:04;;;;;;;5.38;2.53;;;8.00;99.90;;;;;;5027552;28;20029;-62
2023/01/08 04:08:29;;;;;;;7.28;2.38;;;8.10;99.90;;;;;;5015413;28;20120;-62
2023/01/08 04:10:55;;;;;;;5.90;2.95;;;8.00;99.90;;;;;;5021680;28;20033;-62
2023/01/08 04:13:20;;;;;;;5.90;2.75;;;8.10;99.90;;;;;;5017393;28;20063;-62
2023/01/08 04:15:49;;;;;;;6.25;3.38;;;8.20;99.90;;;;;;5018589;28;20381;-62
2023/01/08 04:18:16;;;;;;;3.60;2.85;;;8.20;99.90;;;;;;5023220;28;20072;-62
2023/01/08 04:20:48;;;;;;;6.60;3.45;;;8.20;99.90;;;;;;5026851;28;20041;-62
2023/01/08 04:23:13;;;;;;;6.38;3.25;;;8.40;99.90;;;;;;5025307;28;20041;-63
2023/01/08 04:25:39;;;;;;;7.05;3.33;;;8.30;99.90;;;;;;5026988;28;20110;-62
2023/01/08 04:28:05;;;;;;;6.32;3.17;;;8.40;99.90;;;;;;5023253;28;20377;-63
2023/01/08 04:30:30;;;;;;;7.32;2.85;;;8.40;99.90;;;;;;5019264;28;20040;-62
2023/01/08 04:32:56;;;;;;;5.50;3.00;;;8.50;99.90;;;;;;5019312;28;20034;-62
2023/01/08 04:35:22;;;;;;;7.50;2.85;;;8.50;99.90;;;;;;5018158;28;20099;-62
2023/01/08 04:37:47;;;;;;;4.50;2.47;;;8.50;99.90;;;;;;5029281;28;20458;-62
2023/01/08 04:40:13;;;;;;;7.10;2.45;;;8.60;99.90;;;;;;5025870;28;20837;-62
2023/01/08 04:42:38;;;;;;;6.30;2.47;;;8.50;99.90;;;;;;5022273;28;20512;-63
2023/01/08 04:45:05;;;;;;;4.72;2.60;;;8.50;99.90;;;;;;5020597;28;20034;-62
2023/01/08 04:47:31;;;;;;;6.82;2.45;;;8.50;99.90;;;;;;5022905;28;20079;-62
2023/01/08 04:49:56;;;;;;;3.25;1.90;;;8.60;99.90;;;;;;5028998;28;20655;-62
2023/01/08 04:52:22;;;;;;;7.65;2.45;;;8.50;99.90;;;;;;5027000;28;20034;-63
2023/01/08 04:54:48;;;;;;;4.30;2.40;;;8.50;99.90;;;;;;5028737;28;20037;-62
2023/01/08 04:57:13;;;;;;;3.67;2.00;;;8.40;99.90;;;;;;5031404;28;20061;-63
2023/01/08 04:59:39;;;;;;;5.07;2.10;;;8.40;99.90;;;;;;5029317;28;20041;-63
2023/01/08 05:02:04;;;;;;;4.35;2.28;;;8.30;99.90;;;;;;5027049;28;20924;-63
2023/01/08 05:04:30;;;;;;;3.95;2.20;;;8.30;99.90;;;;;;5028895;28;20573;-63
2023/01/08 05:06:56;;;;;;;3.15;2.13;;;8.30;99.90;;;;;;5032354;28;20481;-62
2023/01/08 05:09:21;;;;;;;3.13;2.30;;;8.20;99.90;;;;;;5032229;28;20041;-63
2023/01/08 05:11:47;;;;;;;3.60;2.33;;;8.20;99.90;;;;;;5027359;28;20375;-62
2023/01/08 05:14:12;;;;;;;4.03;2.63;;;8.20;99.90;;;;;;5026033;28;20424;-63
2023/01/08 05:16:38;;;;;;;5.10;2.65;;;8.20;99.90;;;;;;5028476;28;20065;-63
2023/01/08 05:19:03;;;;;;;4.72;2.60;;;8.10;99.90;;;;;;5022565;28;20519;-62
2023/01/08 05:21:29;;;;;;;5.30;2.20;;;8.20;99.90;;;;;;5032158;28;20084;-63
2023/01/08 05:23:55;;;;;;;3.60;2.35;;;8.20;99.90;;;;;;5030252;28;20132;-63
2023/01/08 05:26:20;;;;;;;5.75;2.30;;;8.20;99.90;;;;;;5030700;28;20041;-63
2023/01/08 05:28:46;;;;;;;6.93;2.50;;;8.20;99.90;;;;;;5028282;28;20582;-62
2023/01/08 05:31:12;;;;;;;3.97;2.10;;;8.20;99.90;;;;;;5030219;28;20492;-63
2023/01/08 05:33:38;;;;;;;6.15;2.33;;;8.10;99.90;;;;;;5022672;28;20029;-64
2023/01/08 05:36:09;;;;;;;5.07;2.15;;;8.10;99.90;;;;;;5031927;28;20048;-63
2023/01/08 05:38:35;;;;;;;4.50;2.28;;;8.10;99.90;;;;;;5032299;28;20133;-62
2023/01/08 05:41:01;;;;;;;4.65;2.80;;;8.00;99.90;;;;;;5030705;28;20033;-63
2023/01/08 05:43:27;;;;;;;3.80;2.50;;;8.00;99.90;;;;;;5032155;28;20042;-63
2023/01/08 05:45:52;;;;;;;4.22;2.15;;;8.00;99.90;;;;;;5016764;28;20042;-63
2023/01/08 05:48:18;;;;;;;5.45;3.55;;;8.00;99.90;;;;;;5022493;28;20046;-62
2023/01/08 05:50:43;;;;;;;3.88;2.53;;;8.00;99.90;;;;;;5019942;28;20035;-63
2023/01/08 05:53:09;;;;;;;3.67;2.13;;;7.90;99.90;;;;;;5028402;28;20071;-63
2023/01/08 05:55:36;;;;;;;2.72;2.20;;;7.90;99.90;;;;;;5025542;28;20034;-63
2023/01/08 05:58:03;;;;;;;5.30;2.70;;;7.80;99.90;;;;;;5028739;28;20053;-63
2023/01/08 06:00:29;;;;;;;5.72;2.92;;;7.80;99.90;;;;;;5022728;28;20505;-63
2023/01/08 06:02:55;;;;;;;4.47;3.00;;;7.70;99.90;;;;;;5034693;28;20060;-62
2023/01/08 06:05:20;;;;;;;4.88;3.17;;;7.70;99.90;;;;;;5023716;28;20042;-63
2023/01/08 06:07:46;;;;;;;6.75;3.20;;;7.80;99.90;;;;;;5026543;28;20091;-63
2023/01/08 06:10:11;;;;;;;6.32;3.08;;;7.80;99.90;;;;;;5028390;28;20044;-63
2023/01/08 06:12:37;;;;;;;11.05;3.45;;;7.80;99.90;;;;;;5029298;28;20041;-62
2023/01/08 06:15:03;;;;;;;6.80;2.75;;;7.90;99.90;;;;;;5028251;28;20044;-62
2023/01/08 06:17:29;;;;;;;6.63;3.03;;;7.90;99.90;;;;;;5024229;28;20079;-63
2023/01/08 06:19:54;;;;;;;6.65;2.85;;;8.00;99.90;;;;;;5025120;28;20084;-63
2023/01/08 06:22:20;;;;;;;4.55;2.60;;;7.90;99.90;;;;;;5016468;28;20041;-62
2023/01/08 06:24:46;;;;;;;6.13;2.33;;;7.90;99.90;;;;;;5028846;28;20041;-62
2023/01/08 06:27:11;;;;;;;5.18;2.33;;;7.90;99.90;;;;;;5032420;28;20083;-63
2023/01/08 06:29:37;;;;;;;4.35;2.20;;;7.90;99.90;;;;;;5024561;28;20034;-62
2023/01/08 06:32:02;;;;;;;4.85;2.05;;;8.00;99.90;;;;;;5008850;28;20033;-62
2023/01/08 06:34:28;;;;;;;5.13;2.03;;;7.90;99.90;;;;;;5031719;28;20072;-62
2023/01/08 06:36:53;;;;;;;6.47;2.50;;;7.90;99.90;;;;;;5027420;28;20060;-63
2023/01/08 06:39:19;;;;;;;7.63;2.00;;;7.80;99.90;;;;;;5008365;28;20088;-63
2023/01/08 06:41:45;;;;;;;5.50;1.73;;;7.80;99.90;;;;;;5022655;28;20057;-62
2023/01/08 06:44:10;;;;;;;5.88;2.33;;;7.80;99.90;;;;;;5032451;28;20038;-63
2023/01/08 06:46:39;;;;;;;6.63;1.80;;;7.90;99.90;;;;;;5032428;28;20108;-62
2023/01/08 06:49:05;;;;;;;4.47;1.73;;;7.80;99.90;;;;;;5033068;28;20366;-62
2023/01/08 06:51:31;;;;;;;3.70;1.92;;;7.80;99.90;;;;;;5032628;28;20037;-62
2023/01/08 06:53:57;;;;;;;8.05;2.13;;;7.80;99.90;;;;;;5031819;28;20037;-63
2023/01/08 06:56:22;;;;;;;6.53;1.60;;;7.70;99.90;;;;;;5025042;28;20050;-62
2023/01/08 06:58:48;;;;;;;5.68;1.80;;;7.70;99.90;;;;;;5020836;28;20057;-62
2023/01/08 07:01:15;;;;;;;5.28;1.85;;;7.70;99.90;;;;;;5021808;28;20045;-63
2023/01/08 07:03:41;;;;;;;4.90;1.60;;;7.70;99.90;;;;;;5021881;28;20041;-63
2023/01/08 07:06:11;;;;;;;7.07;1.65;;;7.70;99.90;;;;;;5021982;28;20528;-63
2023/01/08 07:08:37;;;;;;;;;;;7.70;99.90;;;;;;5023462;28;20493;-63
2023/01/08 07:11:03;;;;;;;8.07;1.77;;;7.70;99.90;;;;;;5027205;28;19917;-63
2023/01/08 07:13:28;;;;;;;3.85;1.55;;;7.70;99.90;;;;;;5021437;28;20464;-63
2023/01/08 07:15:54;;;;;;;6.80;1.45;;;7.60;99.90;;;;;;5024948;28;20047;-62
2023/01/08 07:18:20;;;;;;;3.47;1.52;;;7.60;99.90;;;;;;5026123;28;20113;-62
2023/01/08 07:20:47;;;;;;;5.20;1.85;;;7.70;99.90;;;;;;5021323;28;22739;-63
2023/01/08 07:23:13;;;;;;;6.03;1.70;;;7.60;99.90;;;;;;5019511;28;20038;-63
2023/01/08 07:25:39;;;;;;;4.30;1.70;;;7.70;99.90;;;;;;5026948;28;20049;-63
2023/01/08 07:28:05;;;;;;;5.57;2.15;;;7.60;99.90;;;;;;5029085;28;20037;-63
2023/01/08 07:30:31;;;;;;;4.05;1.25;;;7.50;99.90;;;;;;5022993;28;20075;-62
2023/01/08 07:33:00;;;;;;;4.90;1.33;;;7.60;99.90;;;;;;5021627;28;20038;-62
2023/01/08 07:35:26;;;;;;;5.55;1.30;;;7.50;99.90;;;;;;5029168;28;20045;-62
2023/01/08 07:37:52;;;;;;;4.80;1.40;;;7.50;99.90;;;;;;5025457;28;20033;-62
2023/01/08 07:40:17;;;;;;;4.28;1.60;;;7.50;99.90;;;;;;5019967;28;20124;-63
2023/01/08 07:42:43;;;;;;;5.47;1.63;;;7.40;99.90;;;;;;5027761;28;20079;-63
2023/01/08 07:45:09;;;;;;;5.65;1.50;;;7.40;99.90;;;;;;5023155;28;20042;-63
2023/01/08 07:47:34;;;;;;;3.15;1.52;;;7.40;99.90;;;;;;5018336;28;20144;-62
2023/01/08 07:50:00;;;;;;;10.02;2.10;;;7.50;99.90;;;;;;5029587;28;20037;-62
2023/01/08 07:52:25;;;;;;;5.05;2.42;;;7.50;99.90;;;;;;5024126;28;20037;-63
2023/01/08 07:54:51;;;;;;;6.95;1.73;;;7.50;99.90;;;;;;5027679;28;20048;-63
2023/01/08 07:57:16;;;;;;;7.45;1.90;;;7.50;99.90;;;;;;5021778;28;20053;-63
2023/01/08 07:59:42;;;;;;;9.43;2.22;;;7.50;99.90;;;;;;5022400;28;20486;-62
2023/01/08 08:02:10;;;;;;;7.63;2.08;;;7.50;99.90;;;;;;5031888;28;20049;-63
2023/01/08 08:04:35;;;;;;;10.23;2.60;;;7.50;99.90;;;;;;5026791;28;20392;-63
2023/01/08 08:07:01;;;;;;;8.43;2.10;;;7.50;99.90;;;;;;5024160;28;20045;-62
2023/01/08 08:09:26;;;;;;;9.27;2.55;;;7.40;99.90;;;;;;5028233;28;20370;-63
2023/01/08 08:11:52;;;;;;;7.20;2.92;;;7.40;99.90;;;;;;5028154;28;20030;-63
2023/01/08 08:14:18;;;;;;;7.03;2.33;;;7.40;99.90;;;;;;5028802;28;20361;-62
2023/01/08 08:16:43;;;;;;;5.95;2.42;;;7.40;99.90;;;;;;5025566;28;20606;-62
2023/01/08 08:19:11;;;;;;;9.02;2.75;;;7.40;99.90;;;;;;5021668;28;20128;-62
2023/01/08 08:21:37;;;;;;;6.93;2.30;;;7.40;99.90;;;;;;5023544;28;21168;-62
2023/01/08 08:24:03;;;;;;;5.88;2.45;;;7.30;99.90;;;;;;5028480;28;20038;-63
2023/01/08 08:26:29;;;;;;;5.60;2.30;;;7.30;99.90;;;;;;5029005;28;20030;-63
2023/01/08 08:28:54;;;;;;;8.05;2.97;;;7.30;99.90;;;;;;5024718;28;20041;-62
2023/01/08 08:31:20;;;;;;;7.07;2.20;;;7.30;99.90;;;;;;5024908;28;20046;-63
2023/01/08 08:33:45;;;;;;;6.45;2.35;;;7.20;99.90;;;;;;5027586;28;20039;-63
2023/01/08 08:36:11;;;;;;;8.73;2.63;;;7.20;99.90;;;;;;5028359;28;20409;-63
2023/01/08 08:38:38;;;;;;;10.38;2.63;;;7.30;99.90;;;;;;5028272;28;20091;-63
2023/01/08 08:41:04;;;;;;;8.23;2.47;;;7.20;99.90;;;;;;5020870;28;20030;-63
2023/01/08 08:43:30;;;;;;;13.10;2.58;;;7.20;99.90;;;;;;5027125;28;20117;-63
2023/01/08 08:45:56;;;;;;;7.28;2.22;;;7.30;99.90;;;;;;5026398;28;20124;-63
2023/01/08 08:48:22;;;;;;;5.28;1.88;;;7.30;99.90;;;;;;5025234;28;20044;-63
2023/01/08 08:50:48;;;;;;;6.97;1.80;;;7.30;99.90;;;;;;5030735;28;20412;-62
2023/01/08 08:53:13;;;;;;;9.45;1.67;;;7.30;99.90;;;;;;5031153;28;20030;-63
2023/01/08 08:55:39;;;;;;;7.72;1.90;;;7.30;99.90;;;;;;5025187;28;20057;-62
2023/01/08 08:58:10;;;;;;;8.32;2.22;;;7.40;99.90;;;;;;5027292;28;20096;-63
2023/01/08 09:00:37;;;;;;;4.85;1.70;;;7.30;99.90;;;;;;5026871;28;20072;-62
2023/01/08 09:03:03;;;;;;;6.65;2.28;;;7.40;99.90;;;;;;5026254;28;20050;-63
2023/01/08 09:05:29;;;;;;;5.80;1.98;;;7.30;99.90;;;;;;5023407;28;20040;-63
2023/01/08 09:07:55;;;;;;;5.80;1.95;;;7.30;99.90;;;;;;5028387;28;20120;-63
2023/01/08 09:10:21;;;;;;;7.43;2.75;;;7.40;99.90;;;;;;5024022;28;20073;-63
2023/01/08 09:12:47;;;;;;;5.05;1.52;;;7.40;99.90;;;;;;5029155;28;20037;-62
2023/01/08 09:15:13;;;;;;;4.22;1.60;;;7.40;99.90;;;;;;5018949;28;20141;-63
2023/01/08 09:17:39;;;;;;;5.78;2.63;;;7.50;99.90;;;;;;5029813;28;20136;-63
2023/01/08 09:20:05;;;;;;;8.07;2.00;;;7.60;99.90;;;;;;5026777;28;20045;-62
2023/01/08 09:22:31;;;;;;;4.65;1.50;;;7.60;99.90;;;;;;5022491;28;20034;-62
2023/01/08 09:24:56;;;;;;;5.07;1.70;;;7.60;99.90;;;;;;5025886;28;20393;-63
2023/01/08 09:27:22;;;;;;;5.65;2.00;;;7.70;99.90;;;;;;5028020;28;20033;-63
2023/01/08 09:29:48;;;;;;;3.55;1.45;;;7.70;99.90;;;;;;5024156;28;20039;-63
2023/01/08 09:32:13;;;;;;;4.88;1.73;;;7.70;99.90;;;;;;5028350;28;20034;-62
2023/01/08 09:34:39;;;;;;;5.95;1.60;;;7.80;99.90;;;;;;5031251;28;20465;-63
2023/01/08 09:37:05;;;;;;;4.25;1.60;;;7.80;99.90;;;;;;5029920;28;20095;-63
2023/01/08 09:39:31;;;;;;;6.22;1.60;;;7.80;99.90;;;;;;5031083;28;20049;-63
2023/01/08 09:42:01;;;;;;;3.42;1.30;;;7.80;99.90;;;;;;5034389;28;20046;-63
2023/01/08 09:44:32;;;;;;;4.80;1.47;;;7.90;99.90;;;;;;5033634;28;20046;-62
2023/01/08 09:46:58;;;;;;;5.38;1.55;;;7.90;99.90;;;;;;5052646;28;20036;-62
2023/01/08 09:49:32;;;;;;;7.15;1.38;;;8.00;99.90;;;;;;5054488;28;20045;-62
2023/01/08 09:51:58;;;;;;;5.88;1.70;;;8.00;99.90;;;;;;5054285;28;20056;-62
2023/01/08 09:54:25;;;;;;;4.50;1.60;;;8.00;99.90;;;;;;5042808;28;20045;-63
2023/01/08 09:56:51;;;;;;;6.40;1.80;;;8.10;99.90;;;;;;5042686;28;20831;-62
2023/01/08 09:59:18;;;;;;;5.55;1.35;;;8.00;99.90;;;;;;5053140;28;20051;-62
2023/01/08 10:01:44;;;;;;;6.13;1.50;;;8.00;99.90;;;;;;5053961;28;20076;-62
2023/01/08 10:04:20;;;;;;;8.57;1.45;;;8.10;99.90;;;;;;5052511;28;20053;-65
2023/01/08 10:06:53;;;;;;;7.22;1.45;;;8.10;99.90;;;;;;5052820;28;20424;-63
2023/01/08 10:09:30;;;;;;;6.60;1.80;;;8.10;99.90;;;;;;5052190;28;20033;-62
2023/01/08 10:12:00;;;;;;;5.60;1.80;;;8.20;99.90;;;;;;5037886;28;20034;-63
2023/01/08 10:14:29;;;;;;;6.40;1.50;;;8.10;99.90;;;;;;5033344;28;20044;-62
2023/01/08 10:17:07;;;;;;;8.32;1.67;;;8.20;99.90;;;;;;5033442;28;20134;-62
2023/01/08 10:19:32;;;;;;;8.48;1.58;;;8.20;99.90;;;;;;5032701;28;20060;-62
2023/01/08 10:21:58;;;;;;;5.70;1.23;;;8.30;99.90;;;;;;5033757;28;20623;-63
2023/01/08 10:24:36;;;;;;;8.93;1.58;;;8.30;99.90;;;;;;5033333;28;20045;-62
2023/01/08 10:27:17;;;;;;;5.78;1.90;;;8.30;99.90;;;;;;5033544;28;20041;-62
2023/01/08 10:29:43;;;;;;;10.25;1.75;;;8.40;99.90;;;;;;5031236;28;20044;-62
2023/01/08 10:32:33;;;;;;;9.45;1.73;;;8.40;99.90;;;;;;5033625;28;20037;-62
2023/01/08 10:35:03;;;;;;;11.32;2.08;;;8.40;99.90;;;;;;5032420;28;20057;-62
2023/01/08 10:37:49;;;;;;;4.50;1.20;;;8.40;99.90;;;;;;5039672;28;20037;-62
2023/01/08 10:40:28;;;;;;;7.47;1.55;;;8.40;99.90;;;;;;5052975;28;20056;-62
2023/01/08 10:42:57;;;;;;;5.93;1.60;;;8.40;99.90;;;;;;5053908;28;20052;-62
2023/01/08 10:45:25;;;;;;;6.30;1.63;;;8.50;99.90;;;;;;5039140;28;20084;-63
2023/01/08 10:47:56;;;;;;;8.60;2.28;;;8.50;99.90;;;;;;5033929;28;20115;-62
2023/01/08 10:50:30;;;;;;;9.43;2.13;;;8.50;99.90;;;;;;5033627;28;20034;-62
2023/01/08 10:53:02;;;;;;;8.77;1.77;;;8.50;99.90;;;;;;5032459;28;20041;-63
2023/01/08 10:55:37;;;;;;;11.48;5.43;;;8.60;99.90;;;;;;5032749;28;20367;-62
2023/01/08 10:58:09;;;;;;;6.53;1.88;;;8.60;99.90;;;;;;5033093;28;20064;-63
2023/01/08 11:00:35;;;;;;;6.07;1.60;;;8.60;99.90;;;;;;5032398;28;20124;-62
2023/01/08 11:03:27;;;;;;;8.13;1.77;;;8.60;99.90;;;;;;5033351;28;20049;-62
2023/01/08 11:05:53;;;;;;;10.82;2.00;;;8.70;99.90;;;;;;5040063;28;20072;-62
2023/01/08 11:08:21;;;;;;;8.85;1.65;;;8.70;99.90;;;;;;5052587;28;20392;-62
2023/01/08 11:10:55;;;;;;;10.73;1.88;;;8.70;99.90;;;;;;5046469;28;20037;-61
2023/01/08 11:13:21;;;;;;;7.70;1.30;;;8.70;99.90;;;;;;5032234;28;20045;-62
2023/01/08 11:16:06;;;;;;;11.95;1.70;;;8.80;99.90;;;;;;5032494;28;20040;-62
2023/01/08 11:18:42;;;;;;;9.40;1.60;;;8.70;99.90;;;;;;5032661;28;20045;-63
2023/01/08 11:21:17;;;;;;;9.30;1.88;;;8.80;99.90;;;;;;5032050;28;20037;-62
2023/01/08 11:23:42;;;;;;;6.95;1.75;;;8.80;99.90;;;;;;5032204;28;20120;-61
2023/01/08 11:26:20;;;;;;;8.55;1.95;;;8.80;99.90;;;;;;5032390;28;20189;-62
2023/01/08 11:29:15;;;;;;;10.15;1.83;;;8.80;99.90;;;;;;5039827;28;20035;-61
2023/01/08 11:31:48;;;;;;;7.88;1.95;;;8.70;99.90;;;;;;5036927;28;20608;-61
2023/01/08 11:34:42;;;;;;;9.38;1.77;;;8.70;99.90;;;;;;5045074;28;20072;-63
2023/01/08 11:37:19;;;;;;;9.27;1.70;;;8.80;99.90;;;;;;5030370;28;20060;-62
2023/01/08 11:39:46;;;;;;;7.18;1.95;;;8.80;99.90;;;;;;5031960;28;20383;-64
2023/01/08 11:42:50;;;;;;;8.60;2.42;;;8.80;99.90;;;;;;5044527;28;20048;-63
2023/01/08 11:45:29;;;;;;;8.27;1.67;;;8.90;99.90;;;;;;5050582;28;20130;-62
2023/01/08 11:48:08;;;;;;;7.78;1.55;;;8.90;99.90;;;;;;5051395;28;20118;-63
2023/01/08 11:50:53;;;;;;;10.75;2.63;;;8.90;99.90;;;;;;5052718;28;20086;-62
2023/01/08 11:53:30;;;;;;;7.00;1.60;;;9.00;99.90;;;;;;5040914;28;20029;-62
2023/01/08 11:56:09;;;;;;;7.82;1.67;;;9.00;99.90;;;;;;5031762;28;20057;-62
2023/01/08 11:58:37;;;;;;;9.68;1.83;;;9.10;99.90;;;;;;5031226;28;20064;-62
2023/01/08 12:01:21;;;;;;;9.88;1.52;;;9.10;99.90;;;;;;5031751;28;20092;-62
2023/01/08 12:04:10;;;;;;;7.88;1.92;;;9.20;99.90;;;;;;5031335;28;20037;-63
2023/01/08 12:07:16;;;;;;;8.65;1.80;;;9.10;99.90;;;;;;5031804;28;20121;-62
2023/01/08 12:09:47;;;;;;;7.43;2.38;;;8.90;99.90;;;;;;5021583;28;20041;-62
2023/01/08 12:12:38;;;;;;;10.60;1.90;;;8.90;99.90;;;;;;5032474;28;20042;-62
2023/01/08 12:15:10;;;;;;;;;;;8.90;99.90;;;;;;5029677;28;20045;-62
2023/01/08 12:17:44;;;;;;;15.50;2.70;;;8.80;99.90;;;;;;5032538;28;19963;-62
2023/01/08 12:20:09;;;;;;;9.23;1.80;;;8.90;99.90;;;;;;5036389;28;20053;-62
2023/01/08 12:22:53;;;;;;;5.63;1.90;;;8.90;99.90;;;;;;5051626;28;20075;-62
2023/01/08 12:25:33;;;;;;;10.32;2.15;;;9.00;99.90;;;;;;5051272;28;20132;-62
2023/01/08 12:28:17;;;;;;;8.00;1.95;;;9.00;99.90;;;;;;5035215;28;20044;-62
2023/01/08 12:31:03;;;;;;;9.82;1.85;;;9.00;99.90;;;;;;5031402;28;20076;-62
2023/01/08 12:33:40;;;;;;;8.75;2.20;;;9.00;99.90;;;;;;5031167;28;20045;-62
2023/01/08 12:36:17;;;;;;;8.82;1.75;;;9.00;99.90;;;;;;5022758;28;20120;-63
2023/01/08 12:38:54;;;;;;;9.35;2.00;;;9.00;99.90;;;;;;5029019;28;20477;-62
2023/01/08 12:41:22;;;;;;;8.65;2.83;;;9.10;99.90;;;;;;5022015;28;20037;-62
2023/01/08 12:44:01;;;;;;;10.32;2.13;;;9.20;99.90;;;;;;5039454;28;20128;-62
2023/01/08 12:46:36;;;;;;;9.57;1.92;;;9.30;99.90;;;;;;5027385;28;20541;-62
2023/01/08 12:49:05;;;;;;;10.73;2.13;;;9.30;99.90;;;;;;5029701;28;20041;-62
2023/01/08 12:51:38;;;;;;;11.88;2.45;;;9.30;99.90;;;;;;5029740;28;20036;-62
2023/01/08 12:54:17;;;;;;;7.82;1.77;;;9.30;99.90;;;;;;5030004;28;20076;-63
2023/01/08 12:57:01;;;;;;;7.65;1.77;;;9.30;99.90;;;;;;5029059;28;20064;-62
2023/01/08 12:59:46;;;;;;;8.68;1.85;;;9.30;99.90;;;;;;5025614;28;20393;-63
2023/01/08 13:02:20;;;;;;;9.98;2.05;;;9.30;99.90;;;;;;5028733;28;20037;-62
2023/01/08 13:04:47;;;;;;;11.60;1.90;;;9.40;99.90;;;;;;5029569;28;20132;-62
2023/01/08 13:07:25;;;;;;;8.73;1.67;;;9.50;99.90;;;;;;5029433;28;20069;-62
2023/01/08 13:09:56;;;;;;;8.80;1.85;;;9.50;99.90;;;;;;5030063;28;20465;-63
2023/01/08 13:12:27;;;;;;;;;;;9.50;99.90;;;;;;5026926;28;20041;-62